sensor_id;sensor_type;location;lat;lon;timestamp;pressure;altitude;pressure_sealevel;temperature;humidity
29215;BME280;16252;49.816;7.964;2023-02-15T00:02:22;101518.94;;;4.95;65.48
29215;BME280;16252;49.816;7.964;2023-02-15T00:04:49;101532.84;;;5.03;65.50
29215;BME280;16252;49.816;7.964;2023-02-15T00:07:16;101530.09;;;5.06;65.51
29215;BME280;16252;49.816;7.964;2023-02-15T00:09:42;101532.69;;;5.08;65.61
29215;BME280;16252;49.816;7.964;2023-02-15T00:12:08;101524.84;;;5.05;65.66
29215;BME280;16252;49.816;7.964;2023-02-15T00:14:34;101523.91;;;5.06;65.50
29215;BME280;16252;49.816;7.964;2023-02-15T00:16:59;101529.06;;;5.12;65.62
29215;BME280;16252;49.816;7.964;2023-02-15T00:19:25;101495.88;;;4.97;65.75
29215;BME280;16252;49.816;7.964;2023-02-15T00:21:50;101526.22;;;5.18;65.51
29215;BME280;16252;49.816;7.964;2023-02-15T00:24:17;101537.59;;;5.21;65.61
29215;BME280;16252;49.816;7.964;2023-02-15T00:26:44;101497.69;;;4.95;65.59
29215;BME280;16252;49.816;7.964;2023-02-15T00:29:11;101522.84;;;5.11;65.57
29215;BME280;16252;49.816;7.964;2023-02-15T00:31:37;101505.56;;;4.98;65.50
29215;BME280;16252;49.816;7.964;2023-02-15T00:34:04;101534.28;;;5.15;65.62
29215;BME280;16252;49.816;7.964;2023-02-15T00:36:29;101508.06;;;5.04;65.51
29215;BME280;16252;49.816;7.964;2023-02-15T00:38:55;101535.03;;;5.18;65.44
29215;BME280;16252;49.816;7.964;2023-02-15T00:41:20;101524.56;;;5.14;65.46
29215;BME280;16252;49.816;7.964;2023-02-15T00:43:46;101507.91;;;5.09;65.46
29215;BME280;16252;49.816;7.964;2023-02-15T00:46:11;101508.69;;;5.12;65.41
29215;BME280;16252;49.816;7.964;2023-02-15T00:48:36;101475.50;;;4.99;65.76
29215;BME280;16252;49.816;7.964;2023-02-15T00:51:02;101489.31;;;5.09;65.38
29215;BME280;16252;49.816;7.964;2023-02-15T00:53:28;101509.34;;;5.20;65.57
29215;BME280;16252;49.816;7.964;2023-02-15T00:55:53;101485.72;;;5.11;65.62
29215;BME280;16252;49.816;7.964;2023-02-15T00:58:19;101516.19;;;5.28;65.63
29215;BME280;16252;49.816;7.964;2023-02-15T01:00:46;101496.06;;;5.20;65.75
29215;BME280;16252;49.816;7.964;2023-02-15T01:03:13;101515.28;;;5.29;65.70
29215;BME280;16252;49.816;7.964;2023-02-15T01:05:40;101488.22;;;5.16;65.79
29215;BME280;16252;49.816;7.964;2023-02-15T01:08:06;101488.31;;;5.14;65.24
29215;BME280;16252;49.816;7.964;2023-02-15T01:10:32;101488.19;;;5.17;65.52
29215;BME280;16252;49.816;7.964;2023-02-15T01:12:58;101476.88;;;5.11;65.54
29215;BME280;16252;49.816;7.964;2023-02-15T01:15:24;101480.34;;;5.14;65.55
29215;BME280;16252;49.816;7.964;2023-02-15T01:17:50;101502.16;;;5.24;65.72
29215;BME280;16252;49.816;7.964;2023-02-15T01:20:24;101483.78;;;5.16;65.56
29215;BME280;16252;49.816;7.964;2023-02-15T01:22:51;101493.50;;;5.17;65.37
29215;BME280;16252;49.816;7.964;2023-02-15T01:25:17;101501.22;;;5.25;65.34
29215;BME280;16252;49.816;7.964;2023-02-15T01:27:43;101487.34;;;5.17;65.25
29215;BME280;16252;49.816;7.964;2023-02-15T01:30:09;101500.38;;;5.25;65.61
29215;BME280;16252;49.816;7.964;2023-02-15T01:32:35;101497.00;;;5.19;65.59
29215;BME280;16252;49.816;7.964;2023-02-15T01:35:01;101468.06;;;5.10;65.33
29215;BME280;16252;49.816;7.964;2023-02-15T01:37:27;101450.59;;;5.03;65.43
29215;BME280;16252;49.816;7.964;2023-02-15T01:39:52;101485.19;;;5.30;65.40
29215;BME280;16252;49.816;7.964;2023-02-15T01:42:24;101462.50;;;5.19;65.42
29215;BME280;16252;49.816;7.964;2023-02-15T01:44:55;101493.50;;;5.47;65.36
29215;BME280;16252;49.816;7.964;2023-02-15T01:50:06;101457.78;;;5.29;65.57
29215;BME280;16252;49.816;7.964;2023-02-15T01:52:35;101470.88;;;5.34;65.59
29215;BME280;16252;49.816;7.964;2023-02-15T01:55:05;101465.66;;;5.31;65.46
29215;BME280;16252;49.816;7.964;2023-02-15T01:57:31;101468.19;;;5.35;65.49
29215;BME280;16252;49.816;7.964;2023-02-15T01:59:58;101481.13;;;5.46;65.62
29215;BME280;16252;49.816;7.964;2023-02-15T02:02:27;101477.69;;;5.42;65.67
29215;BME280;16252;49.816;7.964;2023-02-15T02:04:57;101456.69;;;5.35;65.56
29215;BME280;16252;49.816;7.964;2023-02-15T02:07:26;101475.78;;;5.48;65.28
29215;BME280;16252;49.816;7.964;2023-02-15T02:09:52;101453.13;;;5.36;65.20
29215;BME280;16252;49.816;7.964;2023-02-15T02:12:18;101448.03;;;5.30;64.99
29215;BME280;16252;49.816;7.964;2023-02-15T02:14:45;101462.91;;;5.34;65.21
29215;BME280;16252;49.816;7.964;2023-02-15T02:23:12;101473.34;;;5.40;65.06
29215;BME280;16252;49.816;7.964;2023-02-15T02:31:43;101483.84;;;5.45;65.12
29215;BME280;16252;49.816;7.964;2023-02-15T02:34:16;101435.47;;;5.07;65.12
29215;BME280;16252;49.816;7.964;2023-02-15T02:37:12;101458.88;;;5.22;64.92
29215;BME280;16252;49.816;7.964;2023-02-15T02:39:48;101483.25;;;5.35;65.18
29215;BME280;16252;49.816;7.964;2023-02-15T02:42:25;101463.94;;;5.30;65.14
29215;BME280;16252;49.816;7.964;2023-02-15T02:44:58;101449.25;;;5.18;65.20
29215;BME280;16252;49.816;7.964;2023-02-15T02:47:59;101466.47;;;5.34;65.22
29215;BME280;16252;49.816;7.964;2023-02-15T02:50:29;101461.28;;;5.30;65.23
29215;BME280;16252;49.816;7.964;2023-02-15T02:52:56;101456.94;;;5.27;65.45
29215;BME280;16252;49.816;7.964;2023-02-15T02:55:34;101448.19;;;5.24;65.42
29215;BME280;16252;49.816;7.964;2023-02-15T02:58:08;101451.66;;;5.26;65.41
29215;BME280;16252;49.816;7.964;2023-02-15T03:00:40;101409.06;;;5.02;65.37
29215;BME280;16252;49.816;7.964;2023-02-15T03:03:12;101426.22;;;5.18;65.47
29215;BME280;16252;49.816;7.964;2023-02-15T03:05:43;101421.00;;;5.17;65.50
29215;BME280;16252;49.816;7.964;2023-02-15T03:08:12;101421.03;;;5.15;65.25
29215;BME280;16252;49.816;7.964;2023-02-15T03:10:48;101438.41;;;5.26;65.19
29215;BME280;16252;49.816;7.964;2023-02-15T03:13:15;101413.19;;;5.12;65.13
29215;BME280;16252;49.816;7.964;2023-02-15T03:15:42;101406.28;;;5.07;65.18
29215;BME280;16252;49.816;7.964;2023-02-15T03:18:31;101435.75;;;5.26;65.36
29215;BME280;16252;49.816;7.964;2023-02-15T03:21:01;101425.41;;;5.16;65.25
29215;BME280;16252;49.816;7.964;2023-02-15T03:23:27;101424.50;;;5.17;64.86
29215;BME280;16252;49.816;7.964;2023-02-15T03:25:58;101412.47;;;5.06;65.20
29215;BME280;16252;49.816;7.964;2023-02-15T03:28:30;101421.06;;;5.14;65.17
29215;BME280;16252;49.816;7.964;2023-02-15T03:31:00;101406.22;;;5.08;65.19
29215;BME280;16252;49.816;7.964;2023-02-15T03:33:27;101415.81;;;5.12;65.22
29215;BME280;16252;49.816;7.964;2023-02-15T03:38:36;101392.22;;;5.03;65.51
29215;BME280;16252;49.816;7.964;2023-02-15T03:41:07;101387.84;;;5.02;65.33
29215;BME280;16252;49.816;7.964;2023-02-15T03:46:20;101379.19;;;4.95;65.00
29215;BME280;16252;49.816;7.964;2023-02-15T03:48:52;101397.34;;;5.09;65.23
29215;BME280;16252;49.816;7.964;2023-02-15T03:51:21;101380.03;;;4.97;65.18
29215;BME280;16252;49.816;7.964;2023-02-15T03:54:11;101401.50;;;5.18;65.18
29215;BME280;16252;49.816;7.964;2023-02-15T03:56:40;101408.69;;;5.14;65.04
29215;BME280;16252;49.816;7.964;2023-02-15T03:59:06;101409.56;;;5.15;64.86
29215;BME280;16252;49.816;7.964;2023-02-15T04:02:11;101392.06;;;5.09;65.07
29215;BME280;16252;49.816;7.964;2023-02-15T04:04:44;101412.22;;;5.15;65.07
29215;BME280;16252;49.816;7.964;2023-02-15T04:07:10;101390.59;;;4.99;64.83
29215;BME280;16252;49.816;7.964;2023-02-15T04:09:36;101387.94;;;4.99;65.22
29215;BME280;16252;49.816;7.964;2023-02-15T04:12:21;101419.44;;;5.10;65.06
29215;BME280;16252;49.816;7.964;2023-02-15T04:14:46;101379.50;;;4.86;64.96
29215;BME280;16252;49.816;7.964;2023-02-15T04:17:30;101368.38;;;4.73;64.71
29215;BME280;16252;49.816;7.964;2023-02-15T04:19:55;101407.41;;;4.98;64.94
29215;BME280;16252;49.816;7.964;2023-02-15T04:22:40;101430.19;;;5.05;64.96
29215;BME280;16252;49.816;7.964;2023-02-15T04:25:24;101424.13;;;5.02;65.05
29215;BME280;16252;49.816;7.964;2023-02-15T04:27:51;101413.59;;;4.98;65.17
29215;BME280;16252;49.816;7.964;2023-02-15T04:30:19;101431.97;;;5.05;65.23
29215;BME280;16252;49.816;7.964;2023-02-15T04:32:45;101394.63;;;4.83;65.31
29215;BME280;16252;49.816;7.964;2023-02-15T04:35:11;101420.75;;;4.96;65.14
29215;BME280;16252;49.816;7.964;2023-02-15T04:37:37;101420.75;;;4.96;65.28
29215;BME280;16252;49.816;7.964;2023-02-15T04:40:04;101411.03;;;4.95;65.27
29215;BME280;16252;49.816;7.964;2023-02-15T04:42:30;101410.31;;;4.90;65.19
29215;BME280;16252;49.816;7.964;2023-02-15T04:44:55;101409.53;;;4.87;65.25
29215;BME280;16252;49.816;7.964;2023-02-15T04:47:21;101394.59;;;4.84;65.08
29215;BME280;16252;49.816;7.964;2023-02-15T04:49:47;101424.28;;;4.95;65.30
29215;BME280;16252;49.816;7.964;2023-02-15T04:52:12;101363.38;;;4.64;65.30
29215;BME280;16252;49.816;7.964;2023-02-15T04:54:38;101406.75;;;4.91;65.12
29215;BME280;16252;49.816;7.964;2023-02-15T04:57:03;101381.69;;;4.72;65.22
29215;BME280;16252;49.816;7.964;2023-02-15T04:59:29;101395.59;;;4.80;65.38
29215;BME280;16252;49.816;7.964;2023-02-15T05:01:54;101408.69;;;4.86;65.01
29215;BME280;16252;49.816;7.964;2023-02-15T05:04:19;101366.16;;;4.60;65.11
29215;BME280;16252;49.816;7.964;2023-02-15T05:06:45;101403.59;;;4.78;65.05
29215;BME280;16252;49.816;7.964;2023-02-15T05:09:11;101371.25;;;4.66;65.38
29215;BME280;16252;49.816;7.964;2023-02-15T05:11:37;101381.69;;;4.72;65.44
29215;BME280;16252;49.816;7.964;2023-02-15T05:14:02;101380.66;;;4.76;65.23
29215;BME280;16252;49.816;7.964;2023-02-15T05:16:30;101381.47;;;4.80;65.22
29215;BME280;16252;49.816;7.964;2023-02-15T05:18:56;101374.69;;;4.69;64.93
29215;BME280;16252;49.816;7.964;2023-02-15T05:21:21;101372.94;;;4.68;64.87
29215;BME280;16252;49.816;7.964;2023-02-15T05:23:47;101390.50;;;4.72;64.95
29215;BME280;16252;49.816;7.964;2023-02-15T05:26:18;101371.34;;;4.63;65.25
29215;BME280;16252;49.816;7.964;2023-02-15T05:29:02;101398.13;;;4.83;64.61
29215;BME280;16252;49.816;7.964;2023-02-15T05:31:28;101371.66;;;4.53;64.69
29215;BME280;16252;49.816;7.964;2023-02-15T05:33:53;101395.22;;;4.63;65.13
29215;BME280;16252;49.816;7.964;2023-02-15T05:36:18;101366.56;;;4.46;65.15
29215;BME280;16252;49.816;7.964;2023-02-15T05:38:44;101376.06;;;4.53;65.26
29215;BME280;16252;49.816;7.964;2023-02-15T05:41:10;101374.31;;;4.52;65.41
29215;BME280;16252;49.816;7.964;2023-02-15T05:43:36;101389.03;;;4.64;65.38
29215;BME280;16252;49.816;7.964;2023-02-15T05:46:03;101366.41;;;4.50;65.46
29215;BME280;16252;49.816;7.964;2023-02-15T05:48:31;101269.03;;;3.98;65.67
29215;BME280;16252;49.816;7.964;2023-02-15T05:51:08;101372.31;;;4.60;65.60
29215;BME280;16252;49.816;7.964;2023-02-15T05:53:36;101372.22;;;4.63;65.69
29215;BME280;16252;49.816;7.964;2023-02-15T05:56:03;101398.19;;;4.82;65.43
29215;BME280;16252;49.816;7.964;2023-02-15T05:58:31;101380.91;;;4.68;65.43
29215;BME280;16252;49.816;7.964;2023-02-15T06:00:57;101408.81;;;4.82;65.32
29215;BME280;16252;49.816;7.964;2023-02-15T06:03:23;101413.19;;;4.83;65.21
29215;BME280;16252;49.816;7.964;2023-02-15T06:05:49;101410.53;;;4.83;65.38
29215;BME280;16252;49.816;7.964;2023-02-15T06:08:14;101412.31;;;4.82;65.24
29215;BME280;16252;49.816;7.964;2023-02-15T06:10:39;101397.72;;;4.67;64.97
29215;BME280;16252;49.816;7.964;2023-02-15T06:13:05;101400.34;;;4.69;65.09
29215;BME280;16252;49.816;7.964;2023-02-15T06:15:31;101416.03;;;4.76;64.92
29215;BME280;16252;49.816;7.964;2023-02-15T06:17:56;101408.31;;;4.69;65.08
29215;BME280;16252;49.816;7.964;2023-02-15T06:20:21;101389.25;;;4.56;64.96
29215;BME280;16252;49.816;7.964;2023-02-15T06:22:47;101385.84;;;4.51;64.83
29215;BME280;16252;49.816;7.964;2023-02-15T06:25:12;101404.13;;;4.60;65.11
29215;BME280;16252;49.816;7.964;2023-02-15T06:27:40;101418.72;;;4.75;65.17
29215;BME280;16252;49.816;7.964;2023-02-15T06:30:08;101394.38;;;4.61;65.34
29215;BME280;16252;49.816;7.964;2023-02-15T06:32:34;101384.00;;;4.53;65.11
29215;BME280;16252;49.816;7.964;2023-02-15T06:34:59;101421.38;;;4.75;65.17
29215;BME280;16252;49.816;7.964;2023-02-15T06:37:24;101397.09;;;4.59;65.28
29215;BME280;16252;49.816;7.964;2023-02-15T06:39:50;101388.22;;;4.60;65.32
29215;BME280;16252;49.816;7.964;2023-02-15T06:42:15;101370.81;;;4.51;65.22
29215;BME280;16252;49.816;7.964;2023-02-15T06:44:43;101430.91;;;4.81;65.17
29215;BME280;16252;49.816;7.964;2023-02-15T06:47:08;101410.03;;;4.70;65.02
29215;BME280;16252;49.816;7.964;2023-02-15T06:49:33;101441.63;;;4.77;65.27
29215;BME280;16252;49.816;7.964;2023-02-15T06:51:59;101433.03;;;4.69;65.18
29215;BME280;16252;49.816;7.964;2023-02-15T06:54:24;101417.25;;;4.65;65.13
29215;BME280;16252;49.816;7.964;2023-02-15T06:56:49;101425.19;;;4.66;65.28
29215;BME280;16252;49.816;7.964;2023-02-15T06:59:15;101405.06;;;4.59;65.46
29215;BME280;16252;49.816;7.964;2023-02-15T07:01:40;101408.44;;;4.64;65.30
29215;BME280;16252;49.816;7.964;2023-02-15T07:04:05;101407.50;;;4.65;65.23
29215;BME280;16252;49.816;7.964;2023-02-15T07:06:34;101416.09;;;4.73;65.39
29215;BME280;16252;49.816;7.964;2023-02-15T07:09:00;101414.28;;;4.75;65.23
29215;BME280;16252;49.816;7.964;2023-02-15T07:11:25;101418.69;;;4.76;65.02
29215;BME280;16252;49.816;7.964;2023-02-15T07:14:09;101436.06;;;4.87;65.12
29215;BME280;16252;49.816;7.964;2023-02-15T07:16:34;101417.66;;;4.81;64.94
29215;BME280;16252;49.816;7.964;2023-02-15T07:19:00;101422.09;;;4.80;64.95
29215;BME280;16252;49.816;7.964;2023-02-15T07:21:25;101434.25;;;4.89;65.25
29215;BME280;16252;49.816;7.964;2023-02-15T07:23:50;101403.78;;;4.72;65.21
29215;BME280;16252;49.816;7.964;2023-02-15T07:26:16;101380.38;;;4.57;65.08
29215;BME280;16252;49.816;7.964;2023-02-15T07:28:41;101402.03;;;4.71;65.12
29215;BME280;16252;49.816;7.964;2023-02-15T07:31:06;101398.66;;;4.66;65.07
29215;BME280;16252;49.816;7.964;2023-02-15T07:33:32;101418.50;;;4.83;65.10
29215;BME280;16252;49.816;7.964;2023-02-15T07:36:00;101438.53;;;4.93;65.30
29215;BME280;16252;49.816;7.964;2023-02-15T07:38:29;101420.31;;;4.81;65.27
29215;BME280;16252;49.816;7.964;2023-02-15T07:41:03;101398.47;;;4.72;65.41
29215;BME280;16252;49.816;7.964;2023-02-15T07:43:29;101436.72;;;4.93;65.24
29215;BME280;16252;49.816;7.964;2023-02-15T07:46:06;101345.38;;;4.46;65.57
29215;BME280;16252;49.816;7.964;2023-02-15T07:48:35;101427.06;;;4.91;65.22
29215;BME280;16252;49.816;7.964;2023-02-15T07:51:03;101429.47;;;5.00;65.23
29215;BME280;16252;49.816;7.964;2023-02-15T07:53:29;101380.00;;;4.69;65.24
29215;BME280;16252;49.816;7.964;2023-02-15T07:55:58;101385.84;;;4.81;65.42
29215;BME280;16252;49.816;7.964;2023-02-15T07:58:23;101424.88;;;5.05;65.14
29215;BME280;16252;49.816;7.964;2023-02-15T08:01:09;101390.88;;;4.90;65.17
29215;BME280;16252;49.816;7.964;2023-02-15T08:03:34;101409.00;;;5.04;65.36
29215;BME280;16252;49.816;7.964;2023-02-15T08:05:59;101397.84;;;4.94;65.47
29215;BME280;16252;49.816;7.964;2023-02-15T08:08:26;101427.28;;;5.14;65.62
29215;BME280;16252;49.816;7.964;2023-02-15T08:13:55;101417.38;;;5.19;65.16
29215;BME280;16252;49.816;7.964;2023-02-15T08:18:51;101412.13;;;5.16;65.00
29215;BME280;16252;49.816;7.964;2023-02-15T08:21:17;101287.28;;;4.38;65.04
29215;BME280;16252;49.816;7.964;2023-02-15T08:23:43;101378.25;;;4.98;65.15
29215;BME280;16252;49.816;7.964;2023-02-15T08:26:08;101396.53;;;5.07;65.20
29215;BME280;16252;49.816;7.964;2023-02-15T08:28:33;101391.22;;;5.07;65.21
29215;BME280;16252;49.816;7.964;2023-02-15T08:31:09;101401.34;;;5.22;65.37
29215;BME280;16252;49.816;7.964;2023-02-15T08:33:36;101370.25;;;4.99;65.25
29215;BME280;16252;49.816;7.964;2023-02-15T08:36:10;101401.25;;;5.26;65.39
29215;BME280;16252;49.816;7.964;2023-02-15T08:38:36;101393.38;;;5.22;65.19
29215;BME280;16252;49.816;7.964;2023-02-15T08:41:19;101394.16;;;5.26;65.20
29215;BME280;16252;49.816;7.964;2023-02-15T08:43:47;101387.38;;;5.17;64.79
29215;BME280;16252;49.816;7.964;2023-02-15T08:46:14;101390.84;;;5.19;64.86
29215;BME280;16252;49.816;7.964;2023-02-15T08:48:40;101358.78;;;4.99;64.92
29215;BME280;16252;49.816;7.964;2023-02-15T08:51:16;101386.66;;;5.12;64.96
29215;BME280;16252;49.816;7.964;2023-02-15T08:53:46;101377.97;;;5.07;64.88
29215;BME280;16252;49.816;7.964;2023-02-15T08:56:14;101348.53;;;4.87;64.64
29215;BME280;16252;49.816;7.964;2023-02-15T08:58:39;101380.63;;;5.07;64.74
29215;BME280;16252;49.816;7.964;2023-02-15T09:01:10;101390.25;;;5.10;64.89
29215;BME280;16252;49.816;7.964;2023-02-15T09:03:35;101354.56;;;4.92;64.83
29215;BME280;16252;49.816;7.964;2023-02-15T09:06:01;101352.88;;;4.89;64.78
29215;BME280;16252;49.816;7.964;2023-02-15T09:08:27;101374.38;;;5.08;64.83
29215;BME280;16252;49.816;7.964;2023-02-15T09:10:53;101318.88;;;4.74;64.77
29215;BME280;16252;49.816;7.964;2023-02-15T09:13:18;101334.41;;;4.86;64.64
29215;BME280;16252;49.816;7.964;2023-02-15T09:15:45;101309.28;;;4.70;64.55
29215;BME280;16252;49.816;7.964;2023-02-15T09:18:10;101381.25;;;5.14;64.64
29215;BME280;16252;49.816;7.964;2023-02-15T09:20:37;101343.88;;;4.93;64.82
29215;BME280;16252;49.816;7.964;2023-02-15T09:23:02;101370.81;;;5.09;64.91
29215;BME280;16252;49.816;7.964;2023-02-15T09:25:28;101384.56;;;5.22;64.93
29215;BME280;16252;49.816;7.964;2023-02-15T09:27:53;101388.94;;;5.23;64.76
29215;BME280;16252;49.816;7.964;2023-02-15T09:30:19;101369.69;;;5.16;64.72
29215;BME280;16252;49.816;7.964;2023-02-15T09:32:44;101346.16;;;5.06;64.85
29215;BME280;16252;49.816;7.964;2023-02-15T09:35:11;101377.38;;;5.26;64.82
29215;BME280;16252;49.816;7.964;2023-02-15T09:37:36;101357.34;;;5.15;64.87
29215;BME280;16252;49.816;7.964;2023-02-15T09:40:03;101386.84;;;5.34;64.76
29215;BME280;16252;49.816;7.964;2023-02-15T09:43:34;101392.91;;;5.38;64.73
29215;BME280;16252;49.816;7.964;2023-02-15T09:45:45;101372.91;;;5.26;64.69
29215;BME280;16252;49.816;7.964;2023-02-15T09:48:25;101353.88;;;5.13;64.53
29215;BME280;16252;49.816;7.964;2023-02-15T09:51:02;101385.22;;;5.29;64.83
29215;BME280;16252;49.816;7.964;2023-02-15T09:56:53;101370.38;;;5.23;64.90
29215;BME280;16252;49.816;7.964;2023-02-15T10:02:04;101397.28;;;5.39;65.13
29215;BME280;16252;49.816;7.964;2023-02-15T10:13:21;101406.50;;;5.55;64.68
29215;BME280;16252;49.816;7.964;2023-02-15T10:18:59;101395.16;;;5.50;64.54
29215;BME280;16252;49.816;7.964;2023-02-15T10:21:43;101388.16;;;5.48;64.46
29215;BME280;16252;49.816;7.964;2023-02-15T10:24:36;101381.19;;;5.43;64.43
29215;BME280;16252;49.816;7.964;2023-02-15T10:27:12;101349.75;;;5.31;64.33
29215;BME280;16252;49.816;7.964;2023-02-15T10:29:43;101393.81;;;5.63;64.46
29215;BME280;16252;49.816;7.964;2023-02-15T10:32:22;101379.47;;;5.69;64.39
29215;BME280;16252;49.816;7.964;2023-02-15T10:35:00;101378.47;;;5.72;64.45
29215;BME280;16252;49.816;7.964;2023-02-15T10:37:42;101372.81;;;5.82;64.32
29215;BME280;16252;49.816;7.964;2023-02-15T10:50:54;101351.06;;;5.98;63.60
29215;BME280;16252;49.816;7.964;2023-02-15T10:59:21;101357.25;;;6.22;63.58
29215;BME280;16252;49.816;7.964;2023-02-15T11:04:52;101318.72;;;6.10;63.66
29215;BME280;16252;49.816;7.964;2023-02-15T11:07:24;101364.69;;;6.37;63.50
29215;BME280;16252;49.816;7.964;2023-02-15T11:09:51;101368.59;;;6.50;63.47
29215;BME280;16252;49.816;7.964;2023-02-15T11:12:23;101277.53;;;5.98;63.34
29215;BME280;16252;49.816;7.964;2023-02-15T11:14:58;101364.09;;;6.53;63.19
29215;BME280;16252;49.816;7.964;2023-02-15T11:17:30;101361.31;;;6.56;63.51
29215;BME280;16252;49.816;7.964;2023-02-15T11:20:08;101347.03;;;6.58;63.32
29215;BME280;16252;49.816;7.964;2023-02-15T11:22:40;101193.53;;;5.71;63.42
29215;BME280;16252;49.816;7.964;2023-02-15T11:25:16;101341.41;;;6.66;63.11
29215;BME280;16252;49.816;7.964;2023-02-15T11:27:45;101338.75;;;6.66;62.97
29215;BME280;16252;49.816;7.964;2023-02-15T11:30:24;101342.81;;;6.76;62.67
29215;BME280;16252;49.816;7.964;2023-02-15T11:32:52;101339.22;;;6.77;63.19
29215;BME280;16252;49.816;7.964;2023-02-15T11:35:43;101304.13;;;6.67;62.92
29215;BME280;16252;49.816;7.964;2023-02-15T11:38:15;101332.63;;;6.87;63.05
29215;BME280;16252;49.816;7.964;2023-02-15T11:40:57;101319.38;;;6.86;62.70
29215;BME280;16252;49.816;7.964;2023-02-15T11:43:29;101325.31;;;6.92;62.94
29215;BME280;16252;49.816;7.964;2023-02-15T11:45:55;101264.50;;;6.61;62.82
29215;BME280;16252;49.816;7.964;2023-02-15T11:48:20;101274.53;;;6.77;62.77
29215;BME280;16252;49.816;7.964;2023-02-15T11:50:46;101313.50;;;7.00;62.93
29215;BME280;16252;49.816;7.964;2023-02-15T11:53:18;101307.00;;;7.07;62.45
29215;BME280;16252;49.816;7.964;2023-02-15T11:55:47;101304.34;;;7.07;62.69
29215;BME280;16252;49.816;7.964;2023-02-15T12:01:46;101301.19;;;7.19;62.46
29215;BME280;16252;49.816;7.964;2023-02-15T12:04:46;101291.97;;;7.26;62.56
29215;BME280;16252;49.816;7.964;2023-02-15T12:07:52;101285.63;;;7.30;62.38
29215;BME280;16252;49.816;7.964;2023-02-15T12:10:23;101252.78;;;7.09;62.44
29215;BME280;16252;49.816;7.964;2023-02-15T12:13:08;101238.47;;;7.12;62.39
29215;BME280;16252;49.816;7.964;2023-02-15T12:15:35;101281.75;;;7.37;62.57
29215;BME280;16252;49.816;7.964;2023-02-15T12:18:01;101281.69;;;7.39;62.42
29215;BME280;16252;49.816;7.964;2023-02-15T12:20:33;101278.63;;;7.48;62.38
29215;BME280;16252;49.816;7.964;2023-02-15T12:23:03;101274.03;;;7.52;62.41
29215;BME280;16252;49.816;7.964;2023-02-15T12:25:35;101277.25;;;7.60;62.34
29215;BME280;16252;49.816;7.964;2023-02-15T12:28:02;101277.16;;;7.62;62.57
29215;BME280;16252;49.816;7.964;2023-02-15T12:30:32;101273.31;;;7.69;62.25
29215;BME280;16252;49.816;7.964;2023-02-15T12:33:16;101232.41;;;7.49;62.00
29215;BME280;16252;49.816;7.964;2023-02-15T12:35:42;101278.38;;;7.75;62.38
29215;BME280;16252;49.816;7.964;2023-02-15T12:40:34;101257.16;;;7.72;62.19
29215;BME280;16252;49.816;7.964;2023-02-15T12:43:01;101250.31;;;7.66;61.92
29215;BME280;16252;49.816;7.964;2023-02-15T12:45:35;101262.75;;;7.86;61.98
29215;BME280;16252;49.816;7.964;2023-02-15T12:50:37;101206.25;;;7.59;61.95
29215;BME280;16252;49.816;7.964;2023-02-15T12:53:14;101254.47;;;7.92;61.54
29215;BME280;16252;49.816;7.964;2023-02-15T12:58:21;101244.72;;;7.93;61.99
29215;BME280;16252;49.816;7.964;2023-02-15T13:00:48;101162.59;;;7.43;61.99
29215;BME280;16252;49.816;7.964;2023-02-15T13:03:21;101248.22;;;7.93;61.81
29215;BME280;16252;49.816;7.964;2023-02-15T13:05:54;101083.56;;;7.04;61.58
29215;BME280;16252;49.816;7.964;2023-02-15T13:08:22;101235.75;;;7.94;61.74
29215;BME280;16252;49.816;7.964;2023-02-15T13:10:54;101124.19;;;7.28;61.49
29215;BME280;16252;49.816;7.964;2023-02-15T13:13:26;101222.59;;;7.91;61.65
29215;BME280;16252;49.816;7.964;2023-02-15T13:15:55;101221.63;;;7.92;61.69
29215;BME280;16252;49.816;7.964;2023-02-15T13:18:35;101199.75;;;7.85;61.43
29215;BME280;16252;49.816;7.964;2023-02-15T13:21:10;101198.75;;;7.88;61.73
29215;BME280;16252;49.816;7.964;2023-02-15T13:23:37;101216.03;;;7.98;61.83
29215;BME280;16252;49.816;7.964;2023-02-15T13:26:11;101202.84;;;7.95;61.75
29215;BME280;16252;49.816;7.964;2023-02-15T13:28:42;101205.28;;;7.99;61.72
29215;BME280;16252;49.816;7.964;2023-02-15T13:31:13;101192.81;;;8.00;61.62
29215;BME280;16252;49.816;7.964;2023-02-15T13:33:43;101198.75;;;8.07;61.57
29215;BME280;16252;49.816;7.964;2023-02-15T13:36:29;101206.88;;;8.03;61.59
29215;BME280;16252;49.816;7.964;2023-02-15T13:41:46;101197.88;;;8.06;61.56
29215;BME280;16252;49.816;7.964;2023-02-15T13:44:29;101201.47;;;8.05;61.56
29215;BME280;16252;49.816;7.964;2023-02-15T13:52:27;101170.84;;;7.95;61.76
29215;BME280;16252;49.816;7.964;2023-02-15T13:58:10;101196.94;;;8.07;61.65
29215;BME280;16252;49.816;7.964;2023-02-15T14:00:55;101202.41;;;8.04;61.86
29215;BME280;16252;49.816;7.964;2023-02-15T14:06:22;101198.16;;;8.00;61.54
29215;BME280;16252;49.816;7.964;2023-02-15T14:15:05;101188.44;;;7.99;62.17
29215;BME280;16252;49.816;7.964;2023-02-15T14:23:57;101152.66;;;7.86;61.96
29215;BME280;16252;49.816;7.964;2023-02-15T14:31:49;101156.38;;;7.81;62.23
29215;BME280;16252;49.816;7.964;2023-02-15T14:34:22;101164.56;;;7.77;62.25
29215;BME280;16252;49.816;7.964;2023-02-15T14:36:50;101185.41;;;7.88;62.38
29215;BME280;16252;49.816;7.964;2023-02-15T14:39:31;101181.00;;;7.87;62.27
29215;BME280;16252;49.816;7.964;2023-02-15T14:42:53;101176.34;;;7.92;62.09
29215;BME280;16252;49.816;7.964;2023-02-15T14:45:39;101152.84;;;7.81;62.29
29215;BME280;16252;49.816;7.964;2023-02-15T14:48:21;101151.50;;;7.72;62.45
29215;BME280;16252;49.816;7.964;2023-02-15T14:50:49;101156.28;;;7.64;62.38
29215;BME280;16252;49.816;7.964;2023-02-15T14:58:56;101172.56;;;7.77;62.55
29215;BME280;16252;49.816;7.964;2023-02-15T15:01:29;101169.25;;;7.72;62.61
29215;BME280;16252;49.816;7.964;2023-02-15T15:04:05;101166.09;;;7.64;62.72
29215;BME280;16252;49.816;7.964;2023-02-15T15:06:33;101167.94;;;7.62;62.79
29215;BME280;16252;49.816;7.964;2023-02-15T15:09:20;101174.03;;;7.65;62.69